sensor_id;sensor_type;location;lat;lon;timestamp;P1;durP1;ratioP1;P2;durP2;ratioP2
63342;SDS011;49465;57.664;39.686;2023-07-31T00:01:18;6.85;;;3.53;;
63342;SDS011;49465;57.664;39.686;2023-07-31T00:03:45;4.25;;;3.05;;
63342;SDS011;49465;57.664;39.686;2023-07-31T00:06:12;4.50;;;3.22;;
63342;SDS011;49465;57.664;39.686;2023-07-31T00:08:38;4.65;;;3.33;;
63342;SDS011;49465;57.664;39.686;2023-07-31T00:11:05;6.25;;;2.90;;
63342;SDS011;49465;57.664;39.686;2023-07-31T00:13:31;5.20;;;3.20;;
63342;SDS011;49465;57.664;39.686;2023-07-31T00:15:57;5.55;;;2.80;;
63342;SDS011;49465;57.664;39.686;2023-07-31T00:18:24;6.60;;;3.05;;
63342;SDS011;49465;57.664;39.686;2023-07-31T00:20:50;7.32;;;2.92;;
63342;SDS011;49465;57.664;39.686;2023-07-31T00:23:16;5.38;;;3.15;;
63342;SDS011;49465;57.664;39.686;2023-07-31T00:25:43;4.43;;;3.20;;
63342;SDS011;49465;57.664;39.686;2023-07-31T00:28:09;4.38;;;2.90;;
63342;SDS011;49465;57.664;39.686;2023-07-31T00:30:35;4.35;;;3.17;;
63342;SDS011;49465;57.664;39.686;2023-07-31T00:33:02;4.05;;;2.95;;
63342;SDS011;49465;57.664;39.686;2023-07-31T00:35:28;4.80;;;3.00;;
63342;SDS011;49465;57.664;39.686;2023-07-31T00:37:56;3.80;;;2.58;;
63342;SDS011;49465;57.664;39.686;2023-07-31T00:40:23;3.40;;;2.63;;
63342;SDS011;49465;57.664;39.686;2023-07-31T00:42:49;5.90;;;2.88;;
63342;SDS011;49465;57.664;39.686;2023-07-31T00:45:16;4.68;;;2.65;;
63342;SDS011;49465;57.664;39.686;2023-07-31T00:47:47;5.57;;;2.70;;
63342;SDS011;49465;57.664;39.686;2023-07-31T00:50:14;4.03;;;2.42;;
63342;SDS011;49465;57.664;39.686;2023-07-31T00:52:40;5.10;;;2.40;;
63342;SDS011;49465;57.664;39.686;2023-07-31T00:55:07;2.55;;;2.10;;
63342;SDS011;49465;57.664;39.686;2023-07-31T00:57:33;4.10;;;2.60;;
63342;SDS011;49465;57.664;39.686;2023-07-31T01:00:04;4.88;;;2.30;;
63342;SDS011;49465;57.664;39.686;2023-07-31T01:02:31;6.63;;;2.40;;
63342;SDS011;49465;57.664;39.686;2023-07-31T01:04:57;2.90;;;1.98;;
63342;SDS011;49465;57.664;39.686;2023-07-31T01:07:30;3.75;;;2.33;;
63342;SDS011;49465;57.664;39.686;2023-07-31T01:10:21;3.55;;;2.25;;
63342;SDS011;49465;57.664;39.686;2023-07-31T01:13:04;5.97;;;2.67;;
63342;SDS011;49465;57.664;39.686;2023-07-31T01:15:33;6.10;;;2.28;;
63342;SDS011;49465;57.664;39.686;2023-07-31T01:17:59;4.72;;;2.10;;
63342;SDS011;49465;57.664;39.686;2023-07-31T01:20:26;6.65;;;2.35;;
63342;SDS011;49465;57.664;39.686;2023-07-31T01:22:57;4.43;;;2.35;;
63342;SDS011;49465;57.664;39.686;2023-07-31T01:26:05;2.60;;;2.30;;
63342;SDS011;49465;57.664;39.686;2023-07-31T01:31:37;2.92;;;2.17;;
63342;SDS011;49465;57.664;39.686;2023-07-31T01:34:07;4.25;;;2.30;;
63342;SDS011;49465;57.664;39.686;2023-07-31T01:36:35;3.67;;;2.30;;
63342;SDS011;49465;57.664;39.686;2023-07-31T01:39:05;2.50;;;2.03;;
63342;SDS011;49465;57.664;39.686;2023-07-31T01:41:31;2.97;;;1.95;;
63342;SDS011;49465;57.664;39.686;2023-07-31T01:43:57;3.42;;;2.10;;
63342;SDS011;49465;57.664;39.686;2023-07-31T01:46:23;4.68;;;1.85;;
63342;SDS011;49465;57.664;39.686;2023-07-31T01:48:50;4.97;;;2.40;;
63342;SDS011;49465;57.664;39.686;2023-07-31T01:51:16;2.72;;;1.90;;
63342;SDS011;49465;57.664;39.686;2023-07-31T01:53:42;5.05;;;2.10;;
63342;SDS011;49465;57.664;39.686;2023-07-31T01:56:09;2.67;;;1.80;;
63342;SDS011;49465;57.664;39.686;2023-07-31T01:58:38;3.70;;;2.17;;
63342;SDS011;49465;57.664;39.686;2023-07-31T02:01:04;3.22;;;1.90;;
63342;SDS011;49465;57.664;39.686;2023-07-31T02:03:31;3.45;;;2.05;;
63342;SDS011;49465;57.664;39.686;2023-07-31T02:05:57;3.72;;;2.15;;
63342;SDS011;49465;57.664;39.686;2023-07-31T02:08:23;3.67;;;2.28;;
63342;SDS011;49465;57.664;39.686;2023-07-31T02:10:49;3.00;;;2.40;;
63342;SDS011;49465;57.664;39.686;2023-07-31T02:13:16;4.03;;;2.30;;
63342;SDS011;49465;57.664;39.686;2023-07-31T02:15:43;4.22;;;2.20;;
63342;SDS011;49465;57.664;39.686;2023-07-31T02:18:10;3.63;;;2.20;;
63342;SDS011;49465;57.664;39.686;2023-07-31T02:20:36;4.93;;;2.50;;
63342;SDS011;49465;57.664;39.686;2023-07-31T02:23:02;6.15;;;2.33;;
63342;SDS011;49465;57.664;39.686;2023-07-31T02:25:29;4.88;;;2.50;;
63342;SDS011;49465;57.664;39.686;2023-07-31T02:27:55;5.63;;;2.60;;
63342;SDS011;49465;57.664;39.686;2023-07-31T02:30:21;3.50;;;2.17;;
63342;SDS011;49465;57.664;39.686;2023-07-31T02:32:48;3.88;;;2.42;;
63342;SDS011;49465;57.664;39.686;2023-07-31T02:35:14;4.28;;;2.22;;
63342;SDS011;49465;57.664;39.686;2023-07-31T02:37:43;2.40;;;2.20;;
63342;SDS011;49465;57.664;39.686;2023-07-31T02:40:16;5.07;;;2.50;;
63342;SDS011;49465;57.664;39.686;2023-07-31T02:42:42;2.13;;;1.92;;
63342;SDS011;49465;57.664;39.686;2023-07-31T02:45:08;4.07;;;2.10;;
63342;SDS011;49465;57.664;39.686;2023-07-31T02:47:35;5.47;;;2.50;;
63342;SDS011;49465;57.664;39.686;2023-07-31T02:50:02;4.75;;;2.20;;
63342;SDS011;49465;57.664;39.686;2023-07-31T02:52:28;4.50;;;2.13;;
63342;SDS011;49465;57.664;39.686;2023-07-31T02:54:55;4.90;;;1.88;;
63342;SDS011;49465;57.664;39.686;2023-07-31T02:57:22;3.05;;;2.00;;
63342;SDS011;49465;57.664;39.686;2023-07-31T02:59:48;3.05;;;1.77;;
63342;SDS011;49465;57.664;39.686;2023-07-31T03:02:15;2.58;;;1.92;;
63342;SDS011;49465;57.664;39.686;2023-07-31T03:04:41;3.58;;;2.20;;
63342;SDS011;49465;57.664;39.686;2023-07-31T03:07:07;2.97;;;1.98;;
63342;SDS011;49465;57.664;39.686;2023-07-31T03:09:34;4.32;;;1.90;;
63342;SDS011;49465;57.664;39.686;2023-07-31T03:12:00;4.95;;;2.03;;
63342;SDS011;49465;57.664;39.686;2023-07-31T03:14:26;3.20;;;1.83;;
63342;SDS011;49465;57.664;39.686;2023-07-31T03:16:53;3.60;;;1.95;;
63342;SDS011;49465;57.664;39.686;2023-07-31T03:19:19;2.55;;;1.90;;
63342;SDS011;49465;57.664;39.686;2023-07-31T03:21:48;2.88;;;2.05;;
63342;SDS011;49465;57.664;39.686;2023-07-31T03:24:14;2.22;;;2.03;;
63342;SDS011;49465;57.664;39.686;2023-07-31T03:26:41;2.65;;;1.98;;
63342;SDS011;49465;57.664;39.686;2023-07-31T03:29:07;2.55;;;1.80;;
63342;SDS011;49465;57.664;39.686;2023-07-31T03:31:37;3.05;;;2.00;;
63342;SDS011;49465;57.664;39.686;2023-07-31T03:34:03;3.63;;;1.80;;
63342;SDS011;49465;57.664;39.686;2023-07-31T03:36:29;3.67;;;1.90;;
63342;SDS011;49465;57.664;39.686;2023-07-31T03:38:56;6.05;;;2.10;;
63342;SDS011;49465;57.664;39.686;2023-07-31T03:41:23;3.40;;;2.08;;
63342;SDS011;49465;57.664;39.686;2023-07-31T03:43:50;3.95;;;2.00;;
63342;SDS011;49465;57.664;39.686;2023-07-31T03:46:19;3.40;;;1.77;;
63342;SDS011;49465;57.664;39.686;2023-07-31T03:48:45;2.95;;;1.70;;
63342;SDS011;49465;57.664;39.686;2023-07-31T03:51:11;3.42;;;1.92;;
63342;SDS011;49465;57.664;39.686;2023-07-31T03:53:38;4.13;;;1.92;;
63342;SDS011;49465;57.664;39.686;2023-07-31T03:56:07;3.22;;;1.90;;
63342;SDS011;49465;57.664;39.686;2023-07-31T03:58:36;3.67;;;1.92;;
63342;SDS011;49465;57.664;39.686;2023-07-31T04:01:05;4.75;;;2.10;;
63342;SDS011;49465;57.664;39.686;2023-07-31T04:03:31;2.20;;;2.00;;
63342;SDS011;49465;57.664;39.686;2023-07-31T04:06:01;3.70;;;2.00;;
63342;SDS011;49465;57.664;39.686;2023-07-31T04:08:27;2.80;;;1.95;;
63342;SDS011;49465;57.664;39.686;2023-07-31T04:10:56;4.15;;;2.10;;
63342;SDS011;49465;57.664;39.686;2023-07-31T04:13:22;4.90;;;2.20;;
63342;SDS011;49465;57.664;39.686;2023-07-31T04:15:49;3.10;;;2.38;;
63342;SDS011;49465;57.664;39.686;2023-07-31T04:18:19;2.92;;;2.35;;
63342;SDS011;49465;57.664;39.686;2023-07-31T04:20:46;6.22;;;2.33;;
63342;SDS011;49465;57.664;39.686;2023-07-31T04:23:12;3.47;;;2.67;;
63342;SDS011;49465;57.664;39.686;2023-07-31T04:25:41;2.55;;;2.30;;
63342;SDS011;49465;57.664;39.686;2023-07-31T04:28:10;4.68;;;2.30;;
63342;SDS011;49465;57.664;39.686;2023-07-31T04:30:36;4.63;;;2.30;;
63342;SDS011;49465;57.664;39.686;2023-07-31T04:33:03;5.03;;;2.17;;
63342;SDS011;49465;57.664;39.686;2023-07-31T04:35:29;4.05;;;2.20;;
63342;SDS011;49465;57.664;39.686;2023-07-31T04:37:55;4.47;;;2.40;;
63342;SDS011;49465;57.664;39.686;2023-07-31T04:40:27;3.88;;;2.38;;
63342;SDS011;49465;57.664;39.686;2023-07-31T04:42:53;3.53;;;2.22;;
63342;SDS011;49465;57.664;39.686;2023-07-31T04:45:23;5.10;;;3.13;;
63342;SDS011;49465;57.664;39.686;2023-07-31T04:47:49;5.30;;;2.40;;
63342;SDS011;49465;57.664;39.686;2023-07-31T04:50:15;3.50;;;2.10;;
63342;SDS011;49465;57.664;39.686;2023-07-31T04:52:42;3.33;;;2.10;;
63342;SDS011;49465;57.664;39.686;2023-07-31T04:55:08;2.58;;;2.10;;
63342;SDS011;49465;57.664;39.686;2023-07-31T04:57:34;3.72;;;2.20;;
63342;SDS011;49465;57.664;39.686;2023-07-31T05:00:01;3.22;;;2.20;;
63342;SDS011;49465;57.664;39.686;2023-07-31T05:02:27;3.47;;;2.35;;
63342;SDS011;49465;57.664;39.686;2023-07-31T05:04:54;3.53;;;2.75;;
63342;SDS011;49465;57.664;39.686;2023-07-31T05:07:23;3.05;;;2.30;;
63342;SDS011;49465;57.664;39.686;2023-07-31T05:09:49;5.40;;;3.45;;
63342;SDS011;49465;57.664;39.686;2023-07-31T05:12:15;4.45;;;2.33;;
63342;SDS011;49465;57.664;39.686;2023-07-31T05:14:41;3.97;;;2.20;;
63342;SDS011;49465;57.664;39.686;2023-07-31T05:17:10;5.07;;;2.55;;
63342;SDS011;49465;57.664;39.686;2023-07-31T05:19:36;4.15;;;2.45;;
63342;SDS011;49465;57.664;39.686;2023-07-31T05:22:05;4.85;;;2.47;;
63342;SDS011;49465;57.664;39.686;2023-07-31T05:24:34;3.72;;;2.42;;
63342;SDS011;49465;57.664;39.686;2023-07-31T05:27:03;2.95;;;2.33;;
63342;SDS011;49465;57.664;39.686;2023-07-31T05:29:33;3.97;;;2.25;;
63342;SDS011;49465;57.664;39.686;2023-07-31T05:32:00;4.00;;;2.55;;
63342;SDS011;49465;57.664;39.686;2023-07-31T05:34:32;4.32;;;2.70;;
63342;SDS011;49465;57.664;39.686;2023-07-31T05:36:58;3.63;;;2.55;;
63342;SDS011;49465;57.664;39.686;2023-07-31T05:39:24;5.65;;;2.50;;
63342;SDS011;49465;57.664;39.686;2023-07-31T05:41:50;5.72;;;2.88;;
63342;SDS011;49465;57.664;39.686;2023-07-31T05:44:17;5.07;;;2.53;;
63342;SDS011;49465;57.664;39.686;2023-07-31T05:46:43;4.63;;;2.78;;
63342;SDS011;49465;57.664;39.686;2023-07-31T05:49:09;4.22;;;2.80;;
63342;SDS011;49465;57.664;39.686;2023-07-31T05:51:36;4.15;;;3.28;;
63342;SDS011;49465;57.664;39.686;2023-07-31T05:54:02;3.38;;;3.00;;
63342;SDS011;49465;57.664;39.686;2023-07-31T05:56:31;4.90;;;2.78;;
63342;SDS011;49465;57.664;39.686;2023-07-31T05:58:59;5.82;;;2.85;;
63342;SDS011;49465;57.664;39.686;2023-07-31T06:01:25;4.47;;;2.80;;
63342;SDS011;49465;57.664;39.686;2023-07-31T06:03:51;4.43;;;2.72;;
63342;SDS011;49465;57.664;39.686;2023-07-31T06:06:18;3.42;;;2.90;;
63342;SDS011;49465;57.664;39.686;2023-07-31T06:08:48;4.70;;;2.80;;
63342;SDS011;49465;57.664;39.686;2023-07-31T06:11:19;3.45;;;2.90;;
63342;SDS011;49465;57.664;39.686;2023-07-31T06:13:48;3.85;;;2.80;;
63342;SDS011;49465;57.664;39.686;2023-07-31T06:16:15;3.05;;;2.55;;
63342;SDS011;49465;57.664;39.686;2023-07-31T06:18:42;3.90;;;2.83;;
63342;SDS011;49465;57.664;39.686;2023-07-31T06:21:11;4.05;;;2.80;;
63342;SDS011;49465;57.664;39.686;2023-07-31T06:23:43;3.47;;;3.00;;
63342;SDS011;49465;57.664;39.686;2023-07-31T06:26:10;4.82;;;2.83;;
63342;SDS011;49465;57.664;39.686;2023-07-31T06:28:41;5.72;;;2.92;;
63342;SDS011;49465;57.664;39.686;2023-07-31T06:31:07;5.28;;;2.67;;
63342;SDS011;49465;57.664;39.686;2023-07-31T06:33:43;4.63;;;2.85;;
63342;SDS011;49465;57.664;39.686;2023-07-31T06:36:09;3.70;;;2.47;;
63342;SDS011;49465;57.664;39.686;2023-07-31T06:38:36;3.40;;;2.22;;
63342;SDS011;49465;57.664;39.686;2023-07-31T06:41:04;2.47;;;2.20;;
63342;SDS011;49465;57.664;39.686;2023-07-31T06:43:31;4.00;;;2.30;;
63342;SDS011;49465;57.664;39.686;2023-07-31T06:45:57;2.30;;;1.95;;
63342;SDS011;49465;57.664;39.686;2023-07-31T06:48:29;2.20;;;2.00;;
63342;SDS011;49465;57.664;39.686;2023-07-31T06:50:55;3.50;;;2.22;;
63342;SDS011;49465;57.664;39.686;2023-07-31T06:53:25;3.28;;;2.20;;
63342;SDS011;49465;57.664;39.686;2023-07-31T06:55:52;5.63;;;2.13;;
63342;SDS011;49465;57.664;39.686;2023-07-31T06:58:23;3.25;;;1.80;;
63342;SDS011;49465;57.664;39.686;2023-07-31T07:00:52;3.97;;;2.00;;
63342;SDS011;49465;57.664;39.686;2023-07-31T07:03:21;3.65;;;2.10;;
63342;SDS011;49465;57.664;39.686;2023-07-31T07:05:50;2.22;;;2.00;;
63342;SDS011;49465;57.664;39.686;2023-07-31T07:08:19;2.10;;;1.90;;
63342;SDS011;49465;57.664;39.686;2023-07-31T07:10:47;4.40;;;1.90;;
63342;SDS011;49465;57.664;39.686;2023-07-31T07:13:14;3.25;;;1.90;;
63342;SDS011;49465;57.664;39.686;2023-07-31T07:15:40;2.25;;;2.00;;
63342;SDS011;49465;57.664;39.686;2023-07-31T07:18:07;2.78;;;2.00;;
63342;SDS011;49465;57.664;39.686;2023-07-31T07:20:36;2.88;;;1.90;;
63342;SDS011;49465;57.664;39.686;2023-07-31T07:23:05;5.80;;;2.40;;
63342;SDS011;49465;57.664;39.686;2023-07-31T07:25:32;3.33;;;2.30;;
63342;SDS011;49465;57.664;39.686;2023-07-31T07:28:01;3.92;;;2.00;;
63342;SDS011;49465;57.664;39.686;2023-07-31T07:30:30;3.60;;;2.10;;
63342;SDS011;49465;57.664;39.686;2023-07-31T07:32:59;4.80;;;2.35;;
63342;SDS011;49465;57.664;39.686;2023-07-31T07:35:27;3.42;;;2.30;;
63342;SDS011;49465;57.664;39.686;2023-07-31T07:37:54;2.70;;;2.50;;
63342;SDS011;49465;57.664;39.686;2023-07-31T07:40:25;3.17;;;2.90;;
63342;SDS011;49465;57.664;39.686;2023-07-31T07:42:57;5.28;;;2.45;;
63342;SDS011;49465;57.664;39.686;2023-07-31T07:45:25;3.17;;;2.28;;
63342;SDS011;49465;57.664;39.686;2023-07-31T07:47:57;2.50;;;2.30;;
63342;SDS011;49465;57.664;39.686;2023-07-31T07:50:24;3.60;;;2.45;;
63342;SDS011;49465;57.664;39.686;2023-07-31T07:52:50;4.53;;;2.60;;
63342;SDS011;49465;57.664;39.686;2023-07-31T07:55:17;5.55;;;2.55;;
63342;SDS011;49465;57.664;39.686;2023-07-31T07:57:45;2.40;;;2.20;;
63342;SDS011;49465;57.664;39.686;2023-07-31T08:00:15;3.88;;;2.58;;
63342;SDS011;49465;57.664;39.686;2023-07-31T08:02:42;3.30;;;3.00;;
63342;SDS011;49465;57.664;39.686;2023-07-31T08:05:14;4.07;;;2.80;;
63342;SDS011;49465;57.664;39.686;2023-07-31T08:07:42;4.88;;;2.58;;
63342;SDS011;49465;57.664;39.686;2023-07-31T08:10:11;4.38;;;2.33;;
63342;SDS011;49465;57.664;39.686;2023-07-31T08:12:43;2.55;;;2.35;;
63342;SDS011;49465;57.664;39.686;2023-07-31T08:15:09;4.68;;;2.30;;
63342;SDS011;49465;57.664;39.686;2023-07-31T08:17:36;2.97;;;2.13;;
63342;SDS011;49465;57.664;39.686;2023-07-31T08:20:06;4.78;;;2.10;;
63342;SDS011;49465;57.664;39.686;2023-07-31T08:22:39;2.05;;;1.90;;
63342;SDS011;49465;57.664;39.686;2023-07-31T08:25:08;2.28;;;1.80;;
63342;SDS011;49465;57.664;39.686;2023-07-31T08:27:37;2.67;;;1.75;;
63342;SDS011;49465;57.664;39.686;2023-07-31T08:30:07;2.10;;;1.90;;
63342;SDS011;49465;57.664;39.686;2023-07-31T08:32:34;1.85;;;1.70;;
63342;SDS011;49465;57.664;39.686;2023-07-31T08:35:03;1.83;;;1.70;;
63342;SDS011;49465;57.664;39.686;2023-07-31T08:37:33;2.72;;;1.85;;
63342;SDS011;49465;57.664;39.686;2023-07-31T08:39:59;2.00;;;1.80;;
63342;SDS011;49465;57.664;39.686;2023-07-31T08:42:25;2.20;;;1.80;;
63342;SDS011;49465;57.664;39.686;2023-07-31T08:44:56;1.95;;;1.77;;
63342;SDS011;49465;57.664;39.686;2023-07-31T08:47:27;2.65;;;1.75;;
63342;SDS011;49465;57.664;39.686;2023-07-31T08:49:59;2.90;;;2.00;;
63342;SDS011;49465;57.664;39.686;2023-07-31T08:52:35;3.50;;;1.80;;
63342;SDS011;49465;57.664;39.686;2023-07-31T08:55:14;3.25;;;1.70;;
63342;SDS011;49465;57.664;39.686;2023-07-31T08:57:51;2.22;;;1.90;;
63342;SDS011;49465;57.664;39.686;2023-07-31T09:03:08;1.83;;;1.73;;
63342;SDS011;49465;57.664;39.686;2023-07-31T09:05:44;2.83;;;2.00;;
63342;SDS011;49465;57.664;39.686;2023-07-31T09:08:17;2.38;;;1.60;;
63342;SDS011;49465;57.664;39.686;2023-07-31T09:10:45;2.85;;;1.55;;
63342;SDS011;49465;57.664;39.686;2023-07-31T09:13:15;4.78;;;1.73;;
63342;SDS011;49465;57.664;39.686;2023-07-31T09:15:44;2.40;;;1.63;;
63342;SDS011;49465;57.664;39.686;2023-07-31T09:18:12;2.65;;;1.70;;
63342;SDS011;49465;57.664;39.686;2023-07-31T09:20:42;2.88;;;1.80;;
63342;SDS011;49465;57.664;39.686;2023-07-31T09:23:12;2.65;;;1.70;;
63342;SDS011;49465;57.664;39.686;2023-07-31T09:28:10;2.58;;;1.80;;
63342;SDS011;49465;57.664;39.686;2023-07-31T09:30:52;2.63;;;1.75;;
63342;SDS011;49465;57.664;39.686;2023-07-31T09:33:21;2.13;;;1.60;;
63342;SDS011;49465;57.664;39.686;2023-07-31T09:35:47;2.53;;;1.67;;
63342;SDS011;49465;57.664;39.686;2023-07-31T09:38:14;1.98;;;1.77;;
63342;SDS011;49465;57.664;39.686;2023-07-31T09:40:42;3.42;;;2.10;;
63342;SDS011;49465;57.664;39.686;2023-07-31T09:43:11;3.70;;;2.00;;
63342;SDS011;49465;57.664;39.686;2023-07-31T09:45:54;2.25;;;1.67;;
63342;SDS011;49465;57.664;39.686;2023-07-31T09:48:23;2.47;;;1.77;;
63342;SDS011;49465;57.664;39.686;2023-07-31T09:50:53;3.67;;;1.73;;
63342;SDS011;49465;57.664;39.686;2023-07-31T09:53:20;2.03;;;1.70;;
63342;SDS011;49465;57.664;39.686;2023-07-31T09:55:55;1.80;;;1.70;;
63342;SDS011;49465;57.664;39.686;2023-07-31T10:01:01;3.00;;;1.73;;
63342;SDS011;49465;57.664;39.686;2023-07-31T10:03:29;2.08;;;1.83;;
63342;SDS011;49465;57.664;39.686;2023-07-31T10:05:57;2.40;;;1.50;;
63342;SDS011;49465;57.664;39.686;2023-07-31T10:08:30;1.80;;;1.60;;
63342;SDS011;49465;57.664;39.686;2023-07-31T10:11:01;2.58;;;1.83;;
63342;SDS011;49465;57.664;39.686;2023-07-31T10:13:32;2.17;;;1.60;;
63342;SDS011;49465;57.664;39.686;2023-07-31T10:16:14;3.92;;;1.60;;
63342;SDS011;49465;57.664;39.686;2023-07-31T10:18:41;2.25;;;1.50;;
63342;SDS011;49465;57.664;39.686;2023-07-31T10:21:08;2.50;;;1.80;;
63342;SDS011;49465;57.664;39.686;2023-07-31T10:23:36;1.98;;;1.50;;
63342;SDS011;49465;57.664;39.686;2023-07-31T10:26:06;2.63;;;1.45;;
63342;SDS011;49465;57.664;39.686;2023-07-31T10:28:33;1.52;;;1.40;;
63342;SDS011;49465;57.664;39.686;2023-07-31T10:31:02;2.60;;;1.48;;
63342;SDS011;49465;57.664;39.686;2023-07-31T10:33:30;1.35;;;1.13;;
63342;SDS011;49465;57.664;39.686;2023-07-31T10:36:12;2.40;;;1.65;;
63342;SDS011;49465;57.664;39.686;2023-07-31T10:38:45;2.75;;;1.60;;
63342;SDS011;49465;57.664;39.686;2023-07-31T10:41:14;2.13;;;1.80;;
63342;SDS011;49465;57.664;39.686;2023-07-31T10:43:44;1.50;;;1.40;;
63342;SDS011;49465;57.664;39.686;2023-07-31T10:46:15;2.13;;;1.50;;
63342;SDS011;49465;57.664;39.686;2023-07-31T10:48:46;1.80;;;1.60;;
63342;SDS011;49465;57.664;39.686;2023-07-31T10:51:32;2.00;;;1.70;;
63342;SDS011;49465;57.664;39.686;2023-07-31T10:57:01;1.70;;;1.50;;
63342;SDS011;49465;57.664;39.686;2023-07-31T10:59:29;1.90;;;1.80;;
63342;SDS011;49465;57.664;39.686;2023-07-31T11:02:03;1.50;;;1.40;;
63342;SDS011;49465;57.664;39.686;2023-07-31T11:04:32;1.67;;;1.50;;
63342;SDS011;49465;57.664;39.686;2023-07-31T11:07:07;3.15;;;1.60;;
63342;SDS011;49465;57.664;39.686;2023-07-31T11:09:38;3.38;;;1.40;;
63342;SDS011;49465;57.664;39.686;2023-07-31T11:12:07;2.92;;;1.60;;
63342;SDS011;49465;57.664;39.686;2023-07-31T11:14:35;3.08;;;1.52;;
63342;SDS011;49465;57.664;39.686;2023-07-31T11:17:05;2.50;;;1.50;;
63342;SDS011;49465;57.664;39.686;2023-07-31T11:19:38;1.75;;;1.60;;
63342;SDS011;49465;57.664;39.686;2023-07-31T11:22:08;2.45;;;1.65;;
63342;SDS011;49465;57.664;39.686;2023-07-31T11:24:34;3.65;;;1.73;;
63342;SDS011;49465;57.664;39.686;2023-07-31T11:27:00;2.88;;;1.40;;
63342;SDS011;49465;57.664;39.686;2023-07-31T11:29:33;2.22;;;1.50;;
63342;SDS011;49465;57.664;39.686;2023-07-31T11:32:05;1.48;;;1.38;;
63342;SDS011;49465;57.664;39.686;2023-07-31T11:34:53;1.60;;;1.50;;
63342;SDS011;49465;57.664;39.686;2023-07-31T11:37:23;1.92;;;1.40;;
63342;SDS011;49465;57.664;39.686;2023-07-31T11:40:03;1.80;;;1.60;;
63342;SDS011;49465;57.664;39.686;2023-07-31T11:42:30;2.47;;;1.40;;
63342;SDS011;49465;57.664;39.686;2023-07-31T11:44:58;1.30;;;1.20;;
63342;SDS011;49465;57.664;39.686;2023-07-31T11:47:32;1.67;;;1.30;;
63342;SDS011;49465;57.664;39.686;2023-07-31T11:50:04;2.20;;;1.20;;
63342;SDS011;49465;57.664;39.686;2023-07-31T11:52:40;2.33;;;1.42;;
63342;SDS011;49465;57.664;39.686;2023-07-31T11:55:09;1.58;;;1.40;;
63342;SDS011;49465;57.664;39.686;2023-07-31T11:57:40;2.83;;;1.40;;
63342;SDS011;49465;57.664;39.686;2023-07-31T12:00:10;1.65;;;1.50;;
63342;SDS011;49465;57.664;39.686;2023-07-31T12:02:40;4.63;;;1.48;;
63342;SDS011;49465;57.664;39.686;2023-07-31T12:05:16;1.67;;;1.20;;
63342;SDS011;49465;57.664;39.686;2023-07-31T12:07:45;3.75;;;1.30;;
63342;SDS011;49465;57.664;39.686;2023-07-31T12:13:12;2.67;;;1.40;;
63342;SDS011;49465;57.664;39.686;2023-07-31T12:15:53;1.20;;;1.10;;
63342;SDS011;49465;57.664;39.686;2023-07-31T12:18:29;1.40;;;1.25;;
63342;SDS011;49465;57.664;39.686;2023-07-31T12:21:07;1.40;;;1.30;;
63342;SDS011;49465;57.664;39.686;2023-07-31T12:23:36;1.42;;;1.33;;
63342;SDS011;49465;57.664;39.686;2023-07-31T12:26:08;1.52;;;1.30;;
63342;SDS011;49465;57.664;39.686;2023-07-31T12:31:17;1.83;;;1.30;;
63342;SDS011;49465;57.664;39.686;2023-07-31T12:33:57;2.55;;;1.33;;
63342;SDS011;49465;57.664;39.686;2023-07-31T12:36:24;2.47;;;1.40;;
63342;SDS011;49465;57.664;39.686;2023-07-31T12:38:53;1.80;;;1.20;;
63342;SDS011;49465;57.664;39.686;2023-07-31T12:41:21;1.23;;;1.13;;
63342;SDS011;49465;57.664;39.686;2023-07-31T12:43:55;1.50;;;1.40;;
63342;SDS011;49465;57.664;39.686;2023-07-31T12:46:24;1.75;;;1.30;;
63342;SDS011;49465;57.664;39.686;2023-07-31T12:48:57;2.95;;;1.50;;
63342;SDS011;49465;57.664;39.686;2023-07-31T12:51:31;1.85;;;1.27;;
63342;SDS011;49465;57.664;39.686;2023-07-31T12:53:59;1.50;;;1.40;;
63342;SDS011;49465;57.664;39.686;2023-07-31T12:56:28;3.28;;;1.52;;
63342;SDS011;49465;57.664;39.686;2023-07-31T12:59:01;1.92;;;1.38;;
63342;SDS011;49465;57.664;39.686;2023-07-31T13:01:30;1.83;;;1.38;;
63342;SDS011;49465;57.664;39.686;2023-07-31T13:03:59;1.63;;;1.50;;
63342;SDS011;49465;57.664;39.686;2023-07-31T13:06:41;3.10;;;1.40;;
63342;SDS011;49465;57.664;39.686;2023-07-31T13:09:08;3.53;;;1.38;;
63342;SDS011;49465;57.664;39.686;2023-07-31T13:11:34;2.90;;;1.50;;
63342;SDS011;49465;57.664;39.686;2023-07-31T13:14:01;1.50;;;1.35;;
63342;SDS011;49465;57.664;39.686;2023-07-31T13:16:27;1.40;;;1.30;;
63342;SDS011;49465;57.664;39.686;2023-07-31T13:18:53;2.70;;;2.10;;
63342;SDS011;49465;57.664;39.686;2023-07-31T13:21:22;1.80;;;1.40;;
63342;SDS011;49465;57.664;39.686;2023-07-31T13:23:48;2.90;;;1.50;;
63342;SDS011;49465;57.664;39.686;2023-07-31T13:26:15;1.65;;;1.40;;
63342;SDS011;49465;57.664;39.686;2023-07-31T13:28:41;1.88;;;1.40;;
63342;SDS011;49465;57.664;39.686;2023-07-31T13:31:10;2.28;;;1.30;;
63342;SDS011;49465;57.664;39.686;2023-07-31T13:33:41;2.28;;;1.35;;
63342;SDS011;49465;57.664;39.686;2023-07-31T13:36:08;1.95;;;1.50;;
63342;SDS011;49465;57.664;39.686;2023-07-31T13:38:34;2.78;;;1.55;;
63342;SDS011;49465;57.664;39.686;2023-07-31T13:41:04;2.90;;;1.50;;
63342;SDS011;49465;57.664;39.686;2023-07-31T13:43:35;2.28;;;1.40;;
63342;SDS011;49465;57.664;39.686;2023-07-31T13:46:06;3.28;;;1.50;;
63342;SDS011;49465;57.664;39.686;2023-07-31T13:48:35;2.40;;;1.63;;
63342;SDS011;49465;57.664;39.686;2023-07-31T13:51:14;2.47;;;1.60;;
63342;SDS011;49465;57.664;39.686;2023-07-31T13:53:40;1.50;;;1.38;;
63342;SDS011;49465;57.664;39.686;2023-07-31T13:56:06;2.78;;;1.50;;
63342;SDS011;49465;57.664;39.686;2023-07-31T13:58:33;1.80;;;1.40;;
63342;SDS011;49465;57.664;39.686;2023-07-31T14:01:08;1.70;;;1.45;;
63342;SDS011;49465;57.664;39.686;2023-07-31T14:03:40;1.60;;;1.45;;
63342;SDS011;49465;57.664;39.686;2023-07-31T14:06:06;2.97;;;1.70;;
63342;SDS011;49465;57.664;39.686;2023-07-31T14:08:33;2.03;;;1.42;;
63342;SDS011;49465;57.664;39.686;2023-07-31T14:10:59;3.38;;;1.60;;
63342;SDS011;49465;57.664;39.686;2023-07-31T14:13:32;3.25;;;1.60;;
63342;SDS011;49465;57.664;39.686;2023-07-31T14:15:59;2.20;;;1.60;;
63342;SDS011;49465;57.664;39.686;2023-07-31T14:18:25;2.72;;;1.40;;
63342;SDS011;49465;57.664;39.686;2023-07-31T14:20:51;3.25;;;1.60;;
63342;SDS011;49465;57.664;39.686;2023-07-31T14:23:30;1.85;;;1.50;;
63342;SDS011;49465;57.664;39.686;2023-07-31T14:26:04;2.40;;;1.50;;
63342;SDS011;49465;57.664;39.686;2023-07-31T14:28:36;5.27;;;1.70;;
63342;SDS011;49465;57.664;39.686;2023-07-31T14:31:07;1.80;;;1.45;;
63342;SDS011;49465;57.664;39.686;2023-07-31T14:33:36;1.42;;;1.33;;
63342;SDS011;49465;57.664;39.686;2023-07-31T14:36:06;6.43;;;1.55;;
63342;SDS011;49465;57.664;39.686;2023-07-31T14:38:32;2.53;;;1.50;;
63342;SDS011;49465;57.664;39.686;2023-07-31T14:41:04;2.10;;;1.73;;
63342;SDS011;49465;57.664;39.686;2023-07-31T14:43:39;2.75;;;1.60;;
63342;SDS011;49465;57.664;39.686;2023-07-31T14:46:05;2.85;;;1.55;;
63342;SDS011;49465;57.664;39.686;2023-07-31T14:48:35;2.63;;;1.60;;
63342;SDS011;49465;57.664;39.686;2023-07-31T14:51:04;2.67;;;1.52;;
63342;SDS011;49465;57.664;39.686;2023-07-31T14:53:32;2.45;;;1.38;;
63342;SDS011;49465;57.664;39.686;2023-07-31T14:56:04;1.92;;;1.60;;
63342;SDS011;49465;57.664;39.686;2023-07-31T14:58:36;1.45;;;1.35;;
63342;SDS011;49465;57.664;39.686;2023-07-31T15:01:07;1.92;;;1.67;;
63342;SDS011;49465;57.664;39.686;2023-07-31T15:03:33;4.40;;;1.60;;